Time;durP1;ratioP1;P1;durP2;ratioP2;P2;SDS_P1;SDS_P2;PMS_P1;PMS_P2;Temp;Humidity;BMP_temperature;BMP_pressure;BME280_temperature;BME280_humidity;BME280_pressure;Samples;Min_cycle;Max_cycle;Signal;HPM_P1;HPM_P2
2022/03/31 00:01:42;;;;;;;;;;;3.30;99.90;;;;;;5119839;27;20068;-67
2022/03/31 00:04:07;;;;;;;;;;;3.30;99.90;;;;;;5137862;27;19923;-67
2022/03/31 00:06:33;;;;;;;;;;;3.70;99.90;;;;;;5137932;27;19968;-68
2022/03/31 00:08:58;;;;;;;;;;;3.30;99.90;;;;;;5118836;27;19931;-68
2022/03/31 00:11:24;;;;;;;;;;;4.50;99.90;;;;;;5137838;27;20289;-67
2022/03/31 00:13:49;;;;;;;;;;;3.80;99.90;;;;;;5119361;27;19931;-68
2022/03/31 00:16:15;;;;;;;;;;;3.30;99.90;;;;;;5137602;27;20326;-67
2022/03/31 00:18:40;;;;;;;;;;;3.50;99.90;;;;;;5137593;27;20290;-67
2022/03/31 00:21:06;;;;;;;;;;;3.20;99.90;;;;;;5137898;27;19938;-67
2022/03/31 00:23:36;;;;;;;;;;;3.20;99.90;;;;;;5137427;27;19923;-69
2022/03/31 00:26:02;;;;;;;;;;;3.20;99.90;;;;;;5137544;27;19929;-68
2022/03/31 00:28:28;;;;;;;;;;;3.30;99.90;;;;;;5137343;27;19981;-68
2022/03/31 00:30:54;;;;;;;;;;;3.90;99.90;;;;;;5137378;27;19924;-68
2022/03/31 00:33:19;;;;;;;;;;;2.50;99.90;;;;;;5118373;27;19985;-68
2022/03/31 00:35:45;;;;;;;;;;;4.10;99.90;;;;;;5137400;27;20025;-67
2022/03/31 00:38:11;;;;;;;;;;;3.20;99.90;;;;;;5118991;27;19924;-67
2022/03/31 00:40:37;;;;;;;;;;;3.60;99.90;;;;;;5137027;27;19923;-69
2022/03/31 00:43:02;;;;;;;;;;;3.20;99.90;;;;;;5118856;27;19923;-67
2022/03/31 00:45:32;;;;;;;;;;;3.50;99.90;;;;;;5136918;27;19923;-67
2022/03/31 00:47:57;;;;;;;;;;;4.60;99.90;;;;;;5136856;27;20014;-69
2022/03/31 00:50:23;;;;;;;;;;;3.70;99.90;;;;;;5118738;27;19967;-69
2022/03/31 00:52:49;;;;;;;;;;;3.80;99.90;;;;;;5137057;27;19930;-67
2022/03/31 00:55:18;;;;;;;;;;;3.10;99.90;;;;;;5136952;27;20353;-68
2022/03/31 00:57:44;;;;;;;;;;;4.30;99.90;;;;;;5136757;27;20389;-67
2022/03/31 01:00:10;;;;;;;;;;;4.10;99.90;;;;;;5136762;27;19924;-67
2022/03/31 01:02:37;;;;;;;;;;;3.00;99.90;;;;;;5136691;27;20379;-67
2022/03/31 01:05:03;;;;;;;;;;;3.00;99.90;;;;;;5101093;27;20362;-67
2022/03/31 01:07:29;;;;;;;;;;;2.90;99.90;;;;;;5136469;27;20370;-67
2022/03/31 01:09:56;;;;;;;;;;;2.90;99.90;;;;;;5136479;27;19931;-67
2022/03/31 01:12:22;;;;;;;;;;;4.90;99.90;;;;;;5136535;27;20422;-67
2022/03/31 01:14:48;;;;;;;;;;;3.30;99.90;;;;;;5136573;27;19927;-67
2022/03/31 01:17:13;;;;;;;;;;;3.00;99.90;;;;;;5136306;27;20006;-67
2022/03/31 01:19:39;;;;;;;;;;;4.00;99.90;;;;;;5136223;27;20084;-67
2022/03/31 01:22:05;;;;;;;;;;;2.80;99.90;;;;;;5136485;27;19931;-67
2022/03/31 01:24:31;;;;;;;;;;;3.90;99.90;;;;;;5136244;27;20374;-67
2022/03/31 01:26:57;;;;;;;;;;;4.00;99.90;;;;;;5136366;27;20013;-66
2022/03/31 01:29:26;;;;;;;;;;;2.90;99.90;;;;;;5136206;27;20346;-68
2022/03/31 01:31:52;;;;;;;;;;;4.60;99.90;;;;;;5136210;27;19931;-67
2022/03/31 01:34:18;;;;;;;;;;;2.80;99.90;;;;;;5136196;27;19923;-67
2022/03/31 01:36:43;;;;;;;;;;;2.80;99.90;;;;;;5117854;27;20298;-67
2022/03/31 01:39:09;;;;;;;;;;;2.70;99.90;;;;;;5135956;27;19976;-67
2022/03/31 01:41:34;;;;;;;;;;;4.20;99.90;;;;;;5136034;27;19927;-67
2022/03/31 01:44:00;;;;;;;;;;;3.00;99.90;;;;;;5135041;27;20404;-67
2022/03/31 01:46:25;;;;;;;;;;;2.80;99.90;;;;;;5135862;27;19927;-69
2022/03/31 01:48:52;;;;;;;;;;;3.80;99.90;;;;;;5135627;27;19979;-67
2022/03/31 01:51:18;;;;;;;;;;;2.80;99.90;;;;;;5135934;27;19934;-67
2022/03/31 01:53:43;;;;;;;;;;;2.80;99.90;;;;;;5117524;27;20308;-67
2022/03/31 01:56:09;;;;;;;;;;;2.70;99.90;;;;;;5135722;27;19923;-68
2022/03/31 01:58:35;;;;;;;;;;;2.80;99.90;;;;;;5135612;27;20018;-68
2022/03/31 02:01:00;;;;;;;;;;;2.70;99.90;;;;;;5135557;27;20019;-67
2022/03/31 02:03:26;;;;;;;;;;;2.70;99.90;;;;;;5135392;27;19930;-67
2022/03/31 02:05:52;;;;;;;;;;;3.80;99.90;;;;;;5135173;27;19929;-67
2022/03/31 02:08:18;;;;;;;;;;;3.60;99.90;;;;;;5135440;27;19935;-68
2022/03/31 02:10:43;;;;;;;;;;;4.60;99.90;;;;;;5135510;27;20022;-67
2022/03/31 02:13:09;;;;;;;;;;;2.70;99.90;;;;;;5135439;27;19927;-67
2022/03/31 02:15:34;;;;;;;;;;;2.90;99.90;;;;;;5135259;27;19924;-67
2022/03/31 02:18:02;;;;;;;;;;;2.70;99.90;;;;;;5135092;27;19930;-67
2022/03/31 02:20:30;;;;;;;;;;;2.70;99.90;;;;;;5135098;27;20376;-67
2022/03/31 02:22:59;;;;;;;;;;;3.40;99.90;;;;;;5135428;27;19927;-67
2022/03/31 02:25:24;;;;;;;;;;;2.60;99.90;;;;;;5135265;27;19927;-67
2022/03/31 02:27:51;;;;;;;;;;;2.60;99.90;;;;;;5135122;27;20408;-67
2022/03/31 02:30:17;;;;;;;;;;;4.50;99.90;;;;;;5135138;27;19927;-67
2022/03/31 02:32:43;;;;;;;;;;;2.60;99.90;;;;;;5151409;27;20378;-69
2022/03/31 02:35:08;;;;;;;;;;;2.50;99.90;;;;;;5116607;27;20025;-68
2022/03/31 02:37:34;;;;;;;;;;;2.50;99.90;;;;;;5116913;27;19930;-67
2022/03/31 02:40:00;;;;;;;;;;;4.70;99.90;;;;;;5134970;27;20060;-67
2022/03/31 02:42:26;;;;;;;;;;;4.20;99.90;;;;;;5116801;27;19924;-67
2022/03/31 02:44:51;;;;;;;;;;;2.50;99.90;;;;;;5134844;27;20278;-67
2022/03/31 02:47:17;;;;;;;;;;;3.60;99.90;;;;;;5134964;27;19953;-67
2022/03/31 02:49:44;;;;;;;;;;;2.40;99.90;;;;;;5116416;27;20389;-68
2022/03/31 02:52:09;;;;;;;;;;;2.40;99.90;;;;;;5134970;27;19924;-68
2022/03/31 02:57:19;;;;;;;;;;;3.90;99.90;;;;;;5134700;27;19937;-67
2022/03/31 02:59:45;;;;;;;;;;;2.40;99.90;;;;;;5134725;27;20317;-68
2022/03/31 03:02:11;;;;;;;;;;;2.40;99.90;;;;;;5134609;28;19930;-66
2022/03/31 03:04:36;;;;;;;;;;;2.40;99.90;;;;;;5134602;28;19923;-67
2022/03/31 03:07:02;;;;;;;;;;;3.20;99.90;;;;;;5134800;28;20381;-67
2022/03/31 03:09:28;;;;;;;;;;;2.30;99.90;;;;;;5116551;28;19930;-67
2022/03/31 03:11:53;;;;;;;;;;;2.60;99.90;;;;;;5134659;28;19930;-66
2022/03/31 03:14:19;;;;;;;;;;;2.80;99.90;;;;;;5134601;28;19930;-67
2022/03/31 03:16:45;;;;;;;;;;;2.30;99.90;;;;;;5116398;28;19972;-66
2022/03/31 03:19:10;;;;;;;;;;;3.90;99.90;;;;;;5134234;28;19924;-67
2022/03/31 03:21:36;;;;;;;;;;;2.30;99.90;;;;;;5134514;28;20289;-66
2022/03/31 03:24:02;;;;;;;;;;;2.20;99.90;;;;;;5134576;28;19923;-67
2022/03/31 03:26:28;;;;;;;;;;;2.30;99.90;;;;;;5134599;28;19930;-67
2022/03/31 03:28:54;;;;;;;;;;;2.80;99.90;;;;;;5134396;28;19924;-67
2022/03/31 03:31:20;;;;;;;;;;;2.30;99.90;;;;;;5134432;28;19931;-67
2022/03/31 03:33:46;;;;;;;;;;;3.20;99.90;;;;;;5116178;28;19924;-67
2022/03/31 03:36:13;;;;;;;;;;;4.40;99.90;;;;;;5134452;28;20334;-67
2022/03/31 03:38:39;;;;;;;;;;;3.40;99.90;;;;;;5134354;28;19924;-67
2022/03/31 03:41:05;;;;;;;;;;;3.30;99.90;;;;;;5116442;28;19923;-68
2022/03/31 03:43:31;;;;;;;;;;;2.20;99.90;;;;;;5116188;28;19923;-67
2022/03/31 03:45:56;;;;;;;;;;;2.30;99.90;;;;;;5150646;27;19974;-66
2022/03/31 03:48:22;;;;;;;;;;;2.20;99.90;;;;;;5134261;28;19923;-67
2022/03/31 03:50:48;;;;;;;;;;;2.20;99.90;;;;;;5134173;28;20396;-67
2022/03/31 03:53:14;;;;;;;;;;;2.20;99.90;;;;;;5116262;28;19972;-67
2022/03/31 03:55:40;;;;;;;;;;;2.20;99.90;;;;;;5134300;28;20026;-68
2022/03/31 03:58:06;;;;;;;;;;;2.90;99.90;;;;;;5134194;28;20010;-67
2022/03/31 04:00:31;;;;;;;;;;;3.20;99.90;;;;;;5134135;28;19974;-67
2022/03/31 04:02:58;;;;;;;;;;;2.20;99.90;;;;;;5134039;28;19934;-68
2022/03/31 04:05:23;;;;;;;;;;;2.20;99.90;;;;;;5122794;28;20382;-67
2022/03/31 04:07:49;;;;;;;;;;;2.10;99.90;;;;;;5115098;28;19924;-67
2022/03/31 04:10:14;;;;;;;;;;;2.20;99.90;;;;;;5117292;28;20378;-68
2022/03/31 04:12:40;;;;;;;;;;;3.40;99.90;;;;;;5117221;28;20018;-67
2022/03/31 04:15:07;;;;;;;;;;;4.00;99.90;;;;;;5117167;28;20421;-68
2022/03/31 04:17:33;;;;;;;;;;;2.20;99.90;;;;;;5098817;28;20001;-67
2022/03/31 04:19:59;;;;;;;;;;;4.00;99.90;;;;;;5116833;28;20018;-68
2022/03/31 04:22:25;;;;;;;;;;;2.20;99.90;;;;;;5098974;28;19924;-67
2022/03/31 04:24:50;;;;;;;;;;;2.10;99.90;;;;;;5117022;28;19935;-68
2022/03/31 04:27:16;;;;;;;;;;;2.10;99.90;;;;;;5116944;28;19971;-67
2022/03/31 04:29:41;;;;;;;;;;;1.50;99.90;;;;;;5116792;28;19930;-67
2022/03/31 04:32:07;;;;;;;;;;;2.00;99.90;;;;;;5082045;28;20016;-66
2022/03/31 04:34:34;;;;;;;;;;;2.10;99.90;;;;;;5098439;28;19928;-68
2022/03/31 04:37:00;;;;;;;;;;;2.90;99.90;;;;;;5116520;28;19931;-67
2022/03/31 04:39:25;;;;;;;;;;;2.00;99.90;;;;;;5116695;28;19924;-68
2022/03/31 04:41:51;;;;;;;;;;;2.00;99.90;;;;;;5116621;28;19924;-67
2022/03/31 04:44:17;;;;;;;;;;;2.00;99.90;;;;;;5116611;28;19928;-68
2022/03/31 04:46:43;;;;;;;;;;;1.90;99.90;;;;;;5116554;28;19924;-67
2022/03/31 04:49:09;;;;;;;;;;;2.00;99.90;;;;;;5116327;28;19931;-67
2022/03/31 04:51:35;;;;;;;;;;;2.00;99.90;;;;;;5116392;28;19959;-67
2022/03/31 04:54:00;;;;;;;;;;;4.00;99.90;;;;;;5116377;28;20390;-67
2022/03/31 04:56:26;;;;;;;;;;;2.00;99.90;;;;;;5116428;28;19962;-67
2022/03/31 04:58:52;;;;;;;;;;;2.00;99.90;;;;;;5116253;28;19935;-66
2022/03/31 05:01:18;;;;;;;;;;;2.90;99.90;;;;;;5116303;28;20336;-67
2022/03/31 05:03:43;;;;;;;;;;;3.80;99.90;;;;;;5116150;28;20025;-68
2022/03/31 05:06:09;;;;;;;;;;;1.90;99.90;;;;;;5115670;28;20372;-67
2022/03/31 05:08:35;;;;;;;;;;;2.00;99.90;;;;;;5116030;28;19924;-66
2022/03/31 05:11:00;;;;;;;;;;;3.70;99.90;;;;;;5098000;28;19924;-67
2022/03/31 05:13:26;;;;;;;;;;;3.90;99.90;;;;;;5115935;28;20015;-68
2022/03/31 05:15:52;;;;;;;;;;;2.80;99.90;;;;;;5115981;28;19924;-67
2022/03/31 05:18:18;;;;;;;;;;;2.70;99.90;;;;;;5115606;28;19934;-67
2022/03/31 05:20:44;;;;;;;;;;;2.70;99.90;;;;;;5115728;28;19928;-67
2022/03/31 05:23:10;;;;;;;;;;;3.80;99.90;;;;;;5115557;28;19928;-67
2022/03/31 05:25:35;;;;;;;;;;;2.70;99.90;;;;;;5115873;28;19927;-65
2022/03/31 05:28:01;;;;;;;;;;;3.20;99.90;;;;;;5115796;28;19924;-67
2022/03/31 05:30:26;;;;;;;;;;;3.30;99.90;;;;;;5115893;28;19927;-67
2022/03/31 05:32:53;;;;;;;;;;;1.90;99.90;;;;;;5115669;28;19924;-67
2022/03/31 05:35:19;;;;;;;;;;;1.90;99.90;;;;;;5115492;28;19931;-67
2022/03/31 05:37:45;;;;;;;;;;;2.30;99.90;;;;;;5115344;28;20443;-68
2022/03/31 05:40:11;;;;;;;;;;;1.90;99.90;;;;;;5115577;28;19923;-67
2022/03/31 05:42:37;;;;;;;;;;;3.40;99.90;;;;;;5115608;28;19981;-67
2022/03/31 05:45:04;;;;;;;;;;;3.10;99.90;;;;;;5115514;28;20322;-67
2022/03/31 05:47:29;;;;;;;;;;;0.20;99.90;;;;;;5115293;28;19924;-67
2022/03/31 05:49:55;;;;;;;;;;;1.80;99.90;;;;;;5115333;28;19950;-67
2022/03/31 05:52:21;;;;;;;;;;;2.70;99.90;;;;;;5080076;28;19924;-68
2022/03/31 05:54:47;;;;;;;;;;;1.90;99.90;;;;;;5115333;28;20337;-67
2022/03/31 05:57:12;;;;;;;;;;;2.50;99.90;;;;;;5097248;28;19924;-67
2022/03/31 05:59:38;;;;;;;;;;;3.50;99.90;;;;;;5115206;28;20333;-66
2022/03/31 06:02:03;;;;;;;;;;;1.90;99.90;;;;;;5096987;28;19973;-67
2022/03/31 06:04:29;;;;;;;;;;;2.00;99.90;;;;;;5096747;28;19924;-68
2022/03/31 06:06:54;;;;;;;;;;;3.50;99.90;;;;;;5114849;28;20053;-68
2022/03/31 06:09:20;;;;;;;;;;;2.00;99.90;;;;;;5114711;28;19949;-66
2022/03/31 06:11:46;;;;;;;;;;;2.20;99.90;;;;;;5114958;28;19931;-67
2022/03/31 06:14:11;;;;;;;;;;;2.00;99.90;;;;;;5114840;28;19931;-67
2022/03/31 06:16:37;;;;;;;;;;;2.10;99.90;;;;;;5114856;28;19928;-67
2022/03/31 06:19:03;;;;;;;;;;;0.00;99.90;;;;;;5114510;28;19946;-68
2022/03/31 06:21:29;;;;;;;;;;;2.70;99.90;;;;;;5096706;28;19924;-67
2022/03/31 06:23:55;;;;;;;;;;;2.10;99.90;;;;;;5114542;28;19924;-67
2022/03/31 06:26:20;;;;;;;;;;;2.90;99.90;;;;;;5113703;28;19927;-67
2022/03/31 06:28:46;;;;;;;;;;;2.20;99.90;;;;;;5114479;28;19930;-66
2022/03/31 06:31:12;;;;;;;;;;;2.20;99.90;;;;;;5113844;28;19974;-67
2022/03/31 06:33:38;;;;;;;;;;;3.00;99.90;;;;;;5114327;28;19928;-67
2022/03/31 06:36:03;;;;;;;;;;;3.60;99.90;;;;;;5113908;28;19924;-67
2022/03/31 06:38:29;;;;;;;;;;;2.30;99.90;;;;;;5095886;28;20386;-67
2022/03/31 06:41:07;;;;;;;;;;;2.30;99.90;;;;;;5114449;28;19927;-68
2022/03/31 06:43:33;;;;;;;;;;;4.10;99.90;;;;;;5096550;28;19975;-67
2022/03/31 06:45:59;;;;;;;;;;;2.40;99.90;;;;;;5114294;28;19963;-66
2022/03/31 06:48:26;;;;;;;;;;;3.50;99.90;;;;;;5114167;28;19946;-66
2022/03/31 06:50:51;;;;;;;;;;;3.50;99.90;;;;;;5113831;28;20023;-67
2022/03/31 06:53:18;;;;;;;;;;;3.10;99.90;;;;;;5114052;28;20020;-67
2022/03/31 06:55:44;;;;;;;;;;;2.40;99.90;;;;;;5095973;28;19930;-67
2022/03/31 06:58:09;;;;;;;;;;;2.40;99.90;;;;;;5114019;28;19924;-67
2022/03/31 07:00:35;;;;;;;;;;;3.70;99.90;;;;;;5114241;28;19928;-66
2022/03/31 07:03:01;;;;;;;;;;;3.60;99.90;;;;;;5095764;28;19977;-67
2022/03/31 07:05:26;;;;;;;;;;;2.40;99.90;;;;;;5114688;27;19924;-66
2022/03/31 07:07:52;;;;;;;;;;;2.40;99.90;;;;;;5155099;27;20338;-66
2022/03/31 07:10:18;;;;;;;;;;;2.40;99.90;;;;;;5155393;27;19972;-67
2022/03/31 07:12:44;;;;;;;;;;;2.50;99.90;;;;;;5155360;27;19927;-67
2022/03/31 07:15:10;;;;;;;;;;;2.70;99.90;;;;;;5171770;27;19923;-68
2022/03/31 07:17:35;;;;;;;;;;;2.50;99.90;;;;;;5136810;27;19989;-67
2022/03/31 07:20:01;;;;;;;;;;;3.30;99.90;;;;;;5136833;27;20286;-68
2022/03/31 07:22:27;;;;;;;;;;;2.50;99.90;;;;;;5155474;27;20032;-67
2022/03/31 07:24:52;;;;;;;;;;;2.50;99.90;;;;;;5154879;27;19923;-68
2022/03/31 07:27:19;;;;;;;;;;;2.60;99.90;;;;;;5155036;27;19923;-67
2022/03/31 07:29:44;;;;;;;;;;;3.30;99.90;;;;;;5155235;27;19923;-67
2022/03/31 07:32:10;;;;;;;;;;;3.80;99.90;;;;;;5171627;27;19923;-65
2022/03/31 07:34:36;;;;;;;;;;;2.90;99.90;;;;;;5155028;27;19930;-66
2022/03/31 07:37:02;;;;;;;;;;;3.60;99.90;;;;;;5167740;27;19923;-67
2022/03/31 07:39:27;;;;;;;;;;;2.50;99.90;;;;;;5169128;27;19927;-67
2022/03/31 07:41:53;;;;;;;;;;;2.70;99.90;;;;;;5137332;27;19968;-67
2022/03/31 07:44:19;;;;;;;;;;;2.40;99.90;;;;;;5158852;27;19929;-68
2022/03/31 07:46:45;;;;;;;;;;;2.40;99.90;;;;;;5159129;27;19962;-66
2022/03/31 07:49:10;;;;;;;;;;;3.70;99.90;;;;;;5159049;27;19927;-68
2022/03/31 07:51:36;;;;;;;;;;;3.90;99.90;;;;;;5158597;27;20327;-67
2022/03/31 07:54:02;;;;;;;;;;;2.40;99.90;;;;;;5158841;27;20461;-67
2022/03/31 07:56:28;;;;;;;;;;;2.30;99.90;;;;;;5164045;27;19930;-67
2022/03/31 07:58:53;;;;;;;;;;;2.90;99.90;;;;;;5151181;27;20297;-67
2022/03/31 08:01:19;;;;;;;;;;;2.20;99.90;;;;;;5174074;27;20004;-67
2022/03/31 08:03:44;;;;;;;;;;;3.50;99.90;;;;;;5166239;27;19923;-67
2022/03/31 08:06:10;;;;;;;;;;;2.20;99.90;;;;;;5158320;27;19981;-67
2022/03/31 08:08:38;;;;;;;;;;;2.20;99.90;;;;;;5158860;27;20267;-66
2022/03/31 08:11:04;;;;;;;;;;;2.20;99.90;;;;;;5140255;27;19937;-66
2022/03/31 08:13:30;;;;;;;;;;;3.00;99.90;;;;;;5157867;27;19923;-67
2022/03/31 08:15:58;;;;;;;;;;;2.10;99.90;;;;;;5157766;27;19927;-67
2022/03/31 08:18:28;;;;;;;;;;;2.70;99.90;;;;;;5139702;27;20014;-67
2022/03/31 08:20:55;;;;;;;;;;;2.10;99.90;;;;;;5139659;27;20011;-67
2022/03/31 08:23:20;;;;;;;;;;;3.10;99.90;;;;;;5139654;27;19930;-67
2022/03/31 08:25:46;;;;;;;;;;;2.00;99.90;;;;;;5139477;27;19930;-66
2022/03/31 08:28:12;;;;;;;;;;;2.00;99.90;;;;;;5158001;27;19931;-67
2022/03/31 08:30:38;;;;;;;;;;;3.40;99.90;;;;;;5158054;27;19929;-67
2022/03/31 08:33:04;;;;;;;;;;;2.00;99.90;;;;;;5157976;27;19930;-67
2022/03/31 08:35:29;;;;;;;;;;;2.00;99.90;;;;;;5157629;27;20302;-66
2022/03/31 08:37:55;;;;;;;;;;;1.90;99.90;;;;;;5157743;27;19993;-67
2022/03/31 08:40:21;;;;;;;;;;;1.90;99.90;;;;;;5157626;27;19923;-67
2022/03/31 08:42:47;;;;;;;;;;;1.90;99.90;;;;;;5157620;27;20373;-68
2022/03/31 08:45:15;;;;;;;;;;;1.80;99.90;;;;;;5157720;27;19930;-68
2022/03/31 08:47:43;;;;;;;;;;;1.70;99.90;;;;;;5157734;27;20032;-66
2022/03/31 08:50:09;;;;;;;;;;;1.70;99.90;;;;;;5157639;27;19966;-66
2022/03/31 08:52:35;;;;;;;;;;;1.80;99.90;;;;;;5157583;27;20311;-67
2022/03/31 08:55:00;;;;;;;;;;;1.70;99.90;;;;;;5138633;27;20377;-68
2022/03/31 08:57:37;;;;;;;;;;;2.80;99.90;;;;;;5138216;27;19923;-65
2022/03/31 09:00:03;;;;;;;;;;;2.50;99.90;;;;;;5157242;27;19923;-67
2022/03/31 09:02:28;;;;;;;;;;;1.70;99.90;;;;;;5157449;27;19945;-68
2022/03/31 09:05:01;;;;;;;;;;;2.70;99.90;;;;;;5173744;27;20417;-67
2022/03/31 09:07:27;;;;;;;;;;;1.60;99.90;;;;;;5157043;27;19927;-67
2022/03/31 09:09:53;;;;;;;;;;;2.80;99.90;;;;;;5156982;27;19929;-67
2022/03/31 09:12:19;;;;;;;;;;;1.50;99.90;;;;;;5156939;27;20006;-67
2022/03/31 09:14:45;;;;;;;;;;;2.70;99.90;;;;;;5157159;27;19930;-67
2022/03/31 09:17:11;;;;;;;;;;;1.50;99.90;;;;;;5157001;27;19923;-66
2022/03/31 09:19:37;;;;;;;;;;;1.40;99.90;;;;;;5138384;27;20447;-66
2022/03/31 09:22:03;;;;;;;;;;;2.60;99.90;;;;;;5156911;27;19923;-66
2022/03/31 09:24:29;;;;;;;;;;;1.40;99.90;;;;;;5156786;27;19982;-66
2022/03/31 09:26:58;;;;;;;;;;;1.30;99.90;;;;;;5156897;27;20454;-67
2022/03/31 09:29:28;;;;;;;;;;;1.40;99.90;;;;;;5138422;27;19937;-67
2022/03/31 09:32:06;;;;;;;;;;;1.30;99.90;;;;;;5156500;27;19923;-67
2022/03/31 09:34:43;;;;;;;;;;;1.30;99.90;;;;;;5156688;27;19923;-67
2022/03/31 09:37:09;;;;;;;;;;;1.30;99.90;;;;;;5156412;27;19923;-66
2022/03/31 09:39:35;;;;;;;;;;;1.30;99.90;;;;;;5156599;27;20030;-67
2022/03/31 09:42:00;;;;;;;;;;;3.00;99.90;;;;;;5156585;27;19964;-68
2022/03/31 09:44:26;;;;;;;;;;;1.40;99.90;;;;;;5156309;27;19923;-67
2022/03/31 09:46:53;;;;;;;;;;;1.20;99.90;;;;;;5156457;27;19923;-68
2022/03/31 09:49:24;;;;;;;;;;;1.20;99.90;;;;;;5156351;27;19923;-67
2022/03/31 09:52:02;;;;;;;;;;;1.10;99.90;;;;;;5156214;27;19971;-66
2022/03/31 09:54:29;;;;;;;;;;;1.10;99.90;;;;;;5156051;27;19967;-67
2022/03/31 09:56:56;;;;;;;;;;;1.00;99.90;;;;;;5120903;27;20297;-67
2022/03/31 09:59:27;;;;;;;;;;;-0.30;99.90;;;;;;5156091;27;19948;-67
2022/03/31 10:01:53;;;;;;;;;;;1.00;99.90;;;;;;5155613;27;19923;-67
2022/03/31 10:04:22;;;;;;;;;;;0.90;99.90;;;;;;5136524;27;21668;-68
2022/03/31 10:06:49;;;;;;;;;;;0.90;99.90;;;;;;5155110;27;19923;-67
2022/03/31 10:09:15;;;;;;;;;;;1.00;99.90;;;;;;5137604;27;19923;-68
2022/03/31 10:11:43;;;;;;;;;;;0.90;99.90;;;;;;5155785;27;19923;-67
2022/03/31 10:14:27;;;;;;;;;;;0.90;99.90;;;;;;5155892;27;19930;-67
2022/03/31 10:17:01;;;;;;;;;;;0.80;99.90;;;;;;5155703;27;19923;-68
2022/03/31 10:19:31;;;;;;;;;;;0.90;99.90;;;;;;5155815;27;19975;-67
2022/03/31 10:21:58;;;;;;;;;;;0.90;99.90;;;;;;5155761;27;19923;-68
2022/03/31 10:27:12;;;;;;;;;;;0.90;99.90;;;;;;5155548;27;19930;-67
2022/03/31 10:29:39;;;;;;;;;;;0.90;99.90;;;;;;5155445;27;19931;-68
2022/03/31 10:32:18;;;;;;;;;;;0.90;99.90;;;;;;5155695;27;20297;-67
2022/03/31 10:34:48;;;;;;;;;;;0.90;99.90;;;;;;5155673;27;20289;-67
2022/03/31 10:37:16;;;;;;;;;;;1.80;99.90;;;;;;5155547;27;20393;-67
2022/03/31 10:39:50;;;;;;;;;;;0.80;99.90;;;;;;5155385;27;19968;-68
2022/03/31 10:42:16;;;;;;;;;;;0.90;99.90;;;;;;5171751;27;19924;-68
2022/03/31 10:44:41;;;;;;;;;;;2.80;99.90;;;;;;5137034;27;19930;-68
2022/03/31 10:47:09;;;;;;;;;;;0.90;99.90;;;;;;5155420;27;20017;-67
2022/03/31 10:49:35;;;;;;;;;;;2.00;99.90;;;;;;5155404;27;19931;-67
2022/03/31 10:52:12;;;;;;;;;;;0.80;99.90;;;;;;5155015;27;19923;-67
2022/03/31 10:54:37;;;;;;;;;;;0.80;99.90;;;;;;5137060;27;20309;-67
2022/03/31 10:57:12;;;;;;;;;;;0.80;99.90;;;;;;5136779;27;19931;-66
2022/03/31 10:59:38;;;;;;;;;;;0.90;99.90;;;;;;5155335;27;19927;-67
2022/03/31 11:02:10;;;;;;;;;;;0.80;99.90;;;;;;5155408;27;20460;-67
2022/03/31 11:04:46;;;;;;;;;;;0.90;99.90;;;;;;5155170;27;19925;-67
2022/03/31 11:07:22;;;;;;;;;;;0.80;99.90;;;;;;5154830;27;19975;-68
2022/03/31 11:09:58;;;;;;;;;;;0.90;99.90;;;;;;5155192;27;19923;-67
2022/03/31 11:12:26;;;;;;;;;;;0.90;99.90;;;;;;5155170;27;19927;-67
2022/03/31 11:14:55;;;;;;;;;;;0.90;99.90;;;;;;5154977;27;20417;-67
2022/03/31 11:17:22;;;;;;;;;;;0.90;99.90;;;;;;5157860;27;20021;-68
2022/03/31 11:19:49;;;;;;;;;;;1.00;99.90;;;;;;5159133;27;19934;-67
2022/03/31 11:22:19;;;;;;;;;;;1.00;99.90;;;;;;5158929;27;20067;-66
2022/03/31 11:24:45;;;;;;;;;;;1.00;99.90;;;;;;5159409;27;20297;-66
2022/03/31 11:27:10;;;;;;;;;;;2.60;99.90;;;;;;5159185;27;19923;-65
2022/03/31 11:29:36;;;;;;;;;;;2.60;99.90;;;;;;5140872;27;19923;-66
2022/03/31 11:32:02;;;;;;;;;;;1.10;99.90;;;;;;5159430;27;20416;-66
2022/03/31 11:34:28;;;;;;;;;;;1.10;99.90;;;;;;5159250;27;20335;-66
2022/03/31 11:36:54;;;;;;;;;;;2.00;99.90;;;;;;5158688;27;19923;-67
2022/03/31 11:39:21;;;;;;;;;;;1.10;99.90;;;;;;5140504;27;20374;-66
2022/03/31 11:41:47;;;;;;;;;;;1.20;99.90;;;;;;5158980;27;19923;-67
2022/03/31 11:44:12;;;;;;;;;;;1.20;99.90;;;;;;5159207;27;19945;-67
2022/03/31 11:46:42;;;;;;;;;;;1.20;99.90;;;;;;5159083;27;19923;-66
2022/03/31 11:49:20;;;;;;;;;;;1.40;99.90;;;;;;5158877;27;19934;-67
2022/03/31 11:51:49;;;;;;;;;;;1.40;99.90;;;;;;5158685;27;19923;-66
2022/03/31 11:54:15;;;;;;;;;;;1.40;99.90;;;;;;5159024;27;20022;-66
2022/03/31 11:56:41;;;;;;;;;;;1.50;99.90;;;;;;5175271;27;19975;-67
2022/03/31 11:59:07;;;;;;;;;;;1.50;99.90;;;;;;5162344;27;20385;-66
2022/03/31 12:01:47;;;;;;;;;;;1.60;99.90;;;;;;5164744;27;20481;-66
2022/03/31 12:04:16;;;;;;;;;;;1.70;99.90;;;;;;5177608;27;20312;-67
2022/03/31 12:06:42;;;;;;;;;;;1.70;99.90;;;;;;5179342;27;19975;-66
2022/03/31 12:09:07;;;;;;;;;;;1.70;99.90;;;;;;5177685;27;19927;-66
2022/03/31 12:11:33;;;;;;;;;;;3.30;99.90;;;;;;5178482;27;19923;-67
2022/03/31 12:14:01;;;;;;;;;;;3.50;99.90;;;;;;5179374;27;20385;-66
2022/03/31 12:16:26;;;;;;;;;;;1.90;99.90;;;;;;5179253;27;19975;-67
2022/03/31 12:18:56;;;;;;;;;;;2.00;99.90;;;;;;5160382;27;20309;-66
2022/03/31 12:21:24;;;;;;;;;;;2.00;99.90;;;;;;5179159;27;19930;-66
2022/03/31 12:23:50;;;;;;;;;;;2.00;99.90;;;;;;5179251;27;19923;-66
2022/03/31 12:26:18;;;;;;;;;;;4.20;99.90;;;;;;5178977;27;20025;-67
2022/03/31 12:28:45;;;;;;;;;;;2.50;99.90;;;;;;5178035;27;20021;-66
2022/03/31 12:31:29;;;;;;;;;;;2.10;99.90;;;;;;5179044;27;20270;-66
2022/03/31 12:33:56;;;;;;;;;;;2.10;99.90;;;;;;5160917;27;19924;-67
2022/03/31 12:36:25;;;;;;;;;;;2.10;99.90;;;;;;5160300;27;19923;-68
2022/03/31 12:38:54;;;;;;;;;;;2.10;99.90;;;;;;5178660;27;20289;-67
2022/03/31 12:41:21;;;;;;;;;;;2.10;99.90;;;;;;5178916;27;20021;-65
2022/03/31 12:43:57;;;;;;;;;;;2.10;99.90;;;;;;5178788;27;20309;-67
2022/03/31 12:46:23;;;;;;;;;;;2.10;99.90;;;;;;5178924;27;19983;-66
2022/03/31 12:48:53;;;;;;;;;;;2.10;99.90;;;;;;5160174;27;19923;-66
2022/03/31 12:51:20;;;;;;;;;;;2.10;99.90;;;;;;5173836;27;20281;-67
2022/03/31 12:53:45;;;;;;;;;;;2.50;99.90;;;;;;5139616;27;19927;-66
2022/03/31 12:56:11;;;;;;;;;;;3.10;99.90;;;;;;5151366;27;19971;-67
2022/03/31 12:58:37;;;;;;;;;;;3.20;99.90;;;;;;5178428;27;19922;-66
2022/03/31 13:01:03;;;;;;;;;;;3.90;99.90;;;;;;5178552;27;19998;-67
2022/03/31 13:03:28;;;;;;;;;;;2.50;99.90;;;;;;5178441;27;20007;-67
2022/03/31 13:05:54;;;;;;;;;;;2.00;99.90;;;;;;5177926;27;19923;-67
2022/03/31 13:08:19;;;;;;;;;;;2.00;99.90;;;;;;5178363;27;19922;-66
2022/03/31 13:10:45;;;;;;;;;;;2.00;99.90;;;;;;5178364;27;19975;-66
2022/03/31 13:13:11;;;;;;;;;;;3.60;99.90;;;;;;5173698;27;19923;-67
2022/03/31 13:15:39;;;;;;;;;;;2.00;99.90;;;;;;5173334;27;19930;-66
2022/03/31 13:18:05;;;;;;;;;;;3.20;99.90;;;;;;5169512;27;20002;-67
2022/03/31 13:20:30;;;;;;;;;;;2.40;99.90;;;;;;5173002;27;20382;-66
2022/03/31 13:22:56;;;;;;;;;;;1.90;99.90;;;;;;5176234;27;20006;-67
2022/03/31 13:25:21;;;;;;;;;;;1.90;99.90;;;;;;5177833;27;19987;-66
2022/03/31 13:27:47;;;;;;;;;;;3.70;99.90;;;;;;5177754;27;19927;-66
2022/03/31 13:30:13;;;;;;;;;;;3.00;99.90;;;;;;5177824;27;19930;-66
2022/03/31 13:32:39;;;;;;;;;;;2.70;99.90;;;;;;5177678;27;19923;-66
2022/03/31 13:35:06;;;;;;;;;;;1.90;99.90;;;;;;5141902;27;19930;-66
2022/03/31 13:37:34;;;;;;;;;;;1.90;99.90;;;;;;5177726;27;20285;-66
2022/03/31 13:40:00;;;;;;;;;;;3.10;99.90;;;;;;5177555;27;20022;-66
2022/03/31 13:42:25;;;;;;;;;;;3.10;99.90;;;;;;5177612;27;19978;-66
2022/03/31 13:44:52;;;;;;;;;;;1.90;99.90;;;;;;5177397;27;19975;-67
2022/03/31 13:47:18;;;;;;;;;;;2.10;99.90;;;;;;5159160;27;20021;-67
2022/03/31 13:49:44;;;;;;;;;;;1.80;99.90;;;;;;5177651;27;19973;-65
2022/03/31 13:52:09;;;;;;;;;;;1.80;99.90;;;;;;5177182;27;19973;-66
2022/03/31 13:54:37;;;;;;;;;;;2.80;99.90;;;;;;5177423;27;19945;-66
2022/03/31 13:57:03;;;;;;;;;;;3.50;99.90;;;;;;5158869;27;19923;-66
2022/03/31 14:02:14;;;;;;;;;;;1.90;99.90;;;;;;5177362;27;20320;-66
2022/03/31 14:04:40;;;;;;;;;;;1.90;99.90;;;;;;5141468;27;20382;-66
2022/03/31 14:07:09;;;;;;;;;;;2.30;99.90;;;;;;5158386;27;19922;-67
2022/03/31 14:09:35;;;;;;;;;;;3.00;99.90;;;;;;5176977;27;19981;-66
2022/03/31 14:12:01;;;;;;;;;;;1.90;99.90;;;;;;5177020;27;20396;-66
2022/03/31 14:14:27;;;;;;;;;;;1.90;99.90;;;;;;5176899;27;20042;-67
2022/03/31 14:16:54;;;;;;;;;;;2.70;99.90;;;;;;5176976;27;20365;-66
2022/03/31 14:19:21;;;;;;;;;;;1.90;99.90;;;;;;5176915;27;19930;-66
2022/03/31 14:21:48;;;;;;;;;;;2.70;99.90;;;;;;5176884;27;19923;-67
2022/03/31 14:24:14;;;;;;;;;;;1.80;99.90;;;;;;5158125;27;19922;-67
2022/03/31 14:26:41;;;;;;;;;;;1.90;99.90;;;;;;5176691;27;19922;-67
2022/03/31 14:29:07;;;;;;;;;;;1.90;99.90;;;;;;5176593;27;19978;-67
2022/03/31 14:31:32;;;;;;;;;;;2.00;99.90;;;;;;5176893;27;19922;-66
2022/03/31 14:33:58;;;;;;;;;;;1.40;99.90;;;;;;5176720;27;19975;-67
2022/03/31 14:36:24;;;;;;;;;;;3.80;99.90;;;;;;5176526;27;20289;-67